sensor_id;sensor_type;location;lat;lon;timestamp;pressure;altitude;pressure_sealevel;temperature;humidity
1401;BME280;46518;48.842;8.926;2023-04-27T00:05:40;97214.19;;;8.32;72.71
1401;BME280;46518;48.842;8.926;2023-04-27T00:08:09;97196.97;;;8.48;71.53
1401;BME280;46518;48.842;8.926;2023-04-27T00:10:37;97207.00;;;8.75;71.04
1401;BME280;46518;48.842;8.926;2023-04-27T00:13:05;97182.59;;;8.74;69.66
1401;BME280;46518;48.842;8.926;2023-04-27T00:15:35;97186.44;;;8.83;67.96
1401;BME280;46518;48.842;8.926;2023-04-27T00:18:04;97200.09;;;8.97;67.86
1401;BME280;46518;48.842;8.926;2023-04-27T00:20:32;97176.28;;;8.87;66.02
1401;BME280;46518;48.842;8.926;2023-04-27T00:23:01;97190.56;;;8.91;65.25
1401;BME280;46518;48.842;8.926;2023-04-27T00:25:29;97204.97;;;9.05;65.44
1401;BME280;46518;48.842;8.926;2023-04-27T00:27:57;97203.06;;;9.01;66.08
1401;BME280;46518;48.842;8.926;2023-04-27T00:30:26;97192.06;;;9.16;66.24
1401;BME280;46518;48.842;8.926;2023-04-27T00:32:55;97189.63;;;9.26;66.23
1401;BME280;46518;48.842;8.926;2023-04-27T00:35:24;97185.19;;;9.26;65.86
1401;BME280;46518;48.842;8.926;2023-04-27T00:37:52;97154.84;;;9.19;65.39
1401;BME280;46518;48.842;8.926;2023-04-27T00:40:20;97175.88;;;9.36;65.09
1401;BME280;46518;48.842;8.926;2023-04-27T00:42:49;97170.22;;;9.27;65.28
1401;BME280;46518;48.842;8.926;2023-04-27T00:45:17;97167.06;;;9.13;65.30
1401;BME280;46518;48.842;8.926;2023-04-27T00:47:45;97169.69;;;9.13;65.73
1401;BME280;46518;48.842;8.926;2023-04-27T00:50:15;97171.03;;;9.16;66.41
1401;BME280;46518;48.842;8.926;2023-04-27T00:52:46;97157.03;;;9.10;66.56
1401;BME280;46518;48.842;8.926;2023-04-27T00:55:17;97159.75;;;9.15;67.70
1401;BME280;46518;48.842;8.926;2023-04-27T00:57:46;97159.09;;;9.08;68.12
1401;BME280;46518;48.842;8.926;2023-04-27T01:00:15;97156.72;;;9.06;67.71
1401;BME280;46518;48.842;8.926;2023-04-27T01:02:44;97165.19;;;8.97;66.60
1401;BME280;46518;48.842;8.926;2023-04-27T01:05:18;97171.34;;;8.91;67.15
1401;BME280;46518;48.842;8.926;2023-04-27T01:07:46;97166.16;;;8.79;67.93
1401;BME280;46518;48.842;8.926;2023-04-27T01:10:15;97179.72;;;8.76;69.30
1401;BME280;46518;48.842;8.926;2023-04-27T01:12:44;97185.44;;;8.61;71.33
1401;BME280;46518;48.842;8.926;2023-04-27T01:15:12;97180.28;;;8.78;71.61
1401;BME280;46518;48.842;8.926;2023-04-27T01:17:40;97195.97;;;8.49;72.74
1401;BME280;46518;48.842;8.926;2023-04-27T01:20:10;97189.66;;;8.38;73.10
1401;BME280;46518;48.842;8.926;2023-04-27T01:22:40;97187.63;;;8.64;72.89
1401;BME280;46518;48.842;8.926;2023-04-27T01:25:10;97187.16;;;8.79;72.52
1401;BME280;46518;48.842;8.926;2023-04-27T01:27:40;97178.25;;;8.80;71.85
1401;BME280;46518;48.842;8.926;2023-04-27T01:30:13;97164.34;;;8.68;70.14
1401;BME280;46518;48.842;8.926;2023-04-27T01:32:41;97185.69;;;8.59;70.53
1401;BME280;46518;48.842;8.926;2023-04-27T01:35:10;97183.06;;;8.36;72.50
1401;BME280;46518;48.842;8.926;2023-04-27T01:37:38;97177.25;;;8.22;72.42
1401;BME280;46518;48.842;8.926;2023-04-27T01:40:11;97174.06;;;8.43;71.06
1401;BME280;46518;48.842;8.926;2023-04-27T01:42:40;97174.88;;;8.44;69.00
1401;BME280;46518;48.842;8.926;2023-04-27T01:45:10;97147.63;;;8.45;69.09
1401;BME280;46518;48.842;8.926;2023-04-27T01:47:38;97183.41;;;8.63;68.32
1401;BME280;46518;48.842;8.926;2023-04-27T01:50:07;97188.78;;;8.45;68.45
1401;BME280;46518;48.842;8.926;2023-04-27T01:52:39;97177.94;;;8.17;71.39
1401;BME280;46518;48.842;8.926;2023-04-27T01:55:14;97190.34;;;8.10;73.41
1401;BME280;46518;48.842;8.926;2023-04-27T01:58:18;97182.03;;;8.13;74.95
1401;BME280;46518;48.842;8.926;2023-04-27T02:01:23;97185.44;;;8.26;74.66
1401;BME280;46518;48.842;8.926;2023-04-27T02:03:51;97180.56;;;8.29;74.15
1401;BME280;46518;48.842;8.926;2023-04-27T02:06:40;97194.25;;;8.31;72.97
1401;BME280;46518;48.842;8.926;2023-04-27T02:09:08;97188.22;;;8.42;72.28
1401;BME280;46518;48.842;8.926;2023-04-27T02:11:59;97194.81;;;8.57;72.00
1401;BME280;46518;48.842;8.926;2023-04-27T02:14:28;97194.69;;;8.63;71.36
1401;BME280;46518;48.842;8.926;2023-04-27T02:17:15;97196.41;;;8.46;70.80
1401;BME280;46518;48.842;8.926;2023-04-27T02:20:20;97196.31;;;8.41;70.39
1401;BME280;46518;48.842;8.926;2023-04-27T02:23:06;97195.94;;;8.26;71.20
1401;BME280;46518;48.842;8.926;2023-04-27T02:25:53;97199.00;;;8.11;71.83
1401;BME280;46518;48.842;8.926;2023-04-27T03:19:23;97195.72;;;8.62;72.54
1401;BME280;46518;48.842;8.926;2023-04-27T03:21:52;97200.66;;;8.59;71.04
1401;BME280;46518;48.842;8.926;2023-04-27T03:24:20;97208.28;;;8.60;70.44
1401;BME280;46518;48.842;8.926;2023-04-27T03:26:51;97205.84;;;8.71;70.25
1401;BME280;46518;48.842;8.926;2023-04-27T03:29:20;97198.22;;;8.69;70.90
1401;BME280;46518;48.842;8.926;2023-04-27T03:31:48;97199.13;;;8.87;70.59
1401;BME280;46518;48.842;8.926;2023-04-27T03:34:17;97205.47;;;8.91;70.17
1401;BME280;46518;48.842;8.926;2023-04-27T03:36:48;97205.84;;;8.82;70.49
1401;BME280;46518;48.842;8.926;2023-04-27T03:39:21;97205.63;;;8.84;70.36
1401;BME280;46518;48.842;8.926;2023-04-27T03:41:52;97208.34;;;8.89;70.69
1401;BME280;46518;48.842;8.926;2023-04-27T03:44:21;97211.41;;;8.86;71.13
1401;BME280;46518;48.842;8.926;2023-04-27T03:46:54;97207.69;;;8.82;71.53
1401;BME280;46518;48.842;8.926;2023-04-27T03:49:22;97202.78;;;8.74;72.16
1401;BME280;46518;48.842;8.926;2023-04-27T03:51:53;97210.31;;;8.82;72.05
1401;BME280;46518;48.842;8.926;2023-04-27T03:54:21;97195.16;;;8.60;73.29
1401;BME280;46518;48.842;8.926;2023-04-27T03:56:49;97191.47;;;8.26;75.65
1401;BME280;46518;48.842;8.926;2023-04-27T03:59:18;97198.25;;;8.57;75.23
1401;BME280;46518;48.842;8.926;2023-04-27T04:01:48;97186.84;;;8.52;75.59
1401;BME280;46518;48.842;8.926;2023-04-27T04:04:18;97203.69;;;8.68;75.74
1401;BME280;46518;48.842;8.926;2023-04-27T04:06:47;97195.16;;;8.60;75.88
1401;BME280;46518;48.842;8.926;2023-04-27T04:09:17;97208.03;;;8.15;75.77
1401;BME280;46518;48.842;8.926;2023-04-27T04:11:47;97201.88;;;8.09;76.74
1401;BME280;46518;48.842;8.926;2023-04-27T04:14:16;97187.97;;;8.20;76.62
1401;BME280;46518;48.842;8.926;2023-04-27T04:16:45;97216.72;;;8.39;76.25
1401;BME280;46518;48.842;8.926;2023-04-27T04:19:13;97196.63;;;8.33;76.30
1401;BME280;46518;48.842;8.926;2023-04-27T04:21:41;97211.00;;;8.30;75.87
1401;BME280;46518;48.842;8.926;2023-04-27T04:24:09;97223.50;;;8.05;75.60
1401;BME280;46518;48.842;8.926;2023-04-27T04:26:39;97209.94;;;7.96;76.50
1401;BME280;46518;48.842;8.926;2023-04-27T04:29:08;97226.28;;;8.21;75.66
1401;BME280;46518;48.842;8.926;2023-04-27T04:31:37;97219.78;;;8.24;74.12
1401;BME280;46518;48.842;8.926;2023-04-27T04:34:09;97221.16;;;8.27;73.85
1401;BME280;46518;48.842;8.926;2023-04-27T04:36:37;97222.97;;;8.14;73.37
1401;BME280;46518;48.842;8.926;2023-04-27T04:39:06;97204.13;;;7.94;74.02
1401;BME280;46518;48.842;8.926;2023-04-27T04:41:34;97209.25;;;7.89;76.33
1401;BME280;46518;48.842;8.926;2023-04-27T04:44:04;97223.53;;;8.28;75.64
1401;BME280;46518;48.842;8.926;2023-04-27T04:46:32;97212.59;;;8.31;76.14
1401;BME280;46518;48.842;8.926;2023-04-27T04:49:03;97214.97;;;8.33;76.12
1401;BME280;46518;48.842;8.926;2023-04-27T04:51:32;97224.47;;;8.46;75.85
1401;BME280;46518;48.842;8.926;2023-04-27T04:54:00;97229.47;;;8.35;74.64
1401;BME280;46518;48.842;8.926;2023-04-27T04:56:28;97220.03;;;8.46;74.67
1401;BME280;46518;48.842;8.926;2023-04-27T04:59:00;97218.53;;;8.50;74.39
1401;BME280;46518;48.842;8.926;2023-04-27T05:01:31;97223.69;;;8.69;74.10
1401;BME280;46518;48.842;8.926;2023-04-27T05:04:00;97226.41;;;8.74;73.28
1401;BME280;46518;48.842;8.926;2023-04-27T05:06:28;97232.44;;;8.62;74.55
1401;BME280;46518;48.842;8.926;2023-04-27T05:08:56;97224.94;;;8.42;76.40
1401;BME280;46518;48.842;8.926;2023-04-27T05:11:25;97233.28;;;8.51;77.02
1401;BME280;46518;48.842;8.926;2023-04-27T05:13:53;97217.84;;;8.67;77.24
1401;BME280;46518;48.842;8.926;2023-04-27T05:16:21;97228.94;;;8.57;78.70
1401;BME280;46518;48.842;8.926;2023-04-27T05:18:50;97220.81;;;8.58;79.17
1401;BME280;46518;48.842;8.926;2023-04-27T05:21:20;97229.13;;;8.79;78.29
1401;BME280;46518;48.842;8.926;2023-04-27T05:23:48;97224.53;;;8.86;78.25
1401;BME280;46518;48.842;8.926;2023-04-27T05:26:17;97222.97;;;8.85;77.93
1401;BME280;46518;48.842;8.926;2023-04-27T05:28:45;97221.50;;;8.66;77.25
1401;BME280;46518;48.842;8.926;2023-04-27T05:31:15;97232.41;;;8.86;76.96
1401;BME280;46518;48.842;8.926;2023-04-27T05:33:43;97240.84;;;9.00;77.17
1401;BME280;46518;48.842;8.926;2023-04-27T05:36:12;97238.22;;;8.88;78.22
1401;BME280;46518;48.842;8.926;2023-04-27T05:38:41;97242.31;;;8.96;78.69
1401;BME280;46518;48.842;8.926;2023-04-27T05:41:09;97245.41;;;8.93;78.56
1401;BME280;46518;48.842;8.926;2023-04-27T05:43:37;97245.06;;;9.01;78.85
1401;BME280;46518;48.842;8.926;2023-04-27T05:46:05;97246.19;;;9.17;78.36
1401;BME280;46518;48.842;8.926;2023-04-27T05:48:34;97248.44;;;9.25;78.07
1401;BME280;46518;48.842;8.926;2023-04-27T05:51:03;97251.03;;;9.37;77.86
1401;BME280;46518;48.842;8.926;2023-04-27T05:53:33;97254.84;;;9.46;77.76
1401;BME280;46518;48.842;8.926;2023-04-27T05:56:01;97247.88;;;9.52;77.58
1401;BME280;46518;48.842;8.926;2023-04-27T05:58:30;97254.81;;;9.58;77.37
1401;BME280;46518;48.842;8.926;2023-04-27T06:00:59;97253.34;;;9.62;76.88
1401;BME280;46518;48.842;8.926;2023-04-27T06:03:28;97257.72;;;9.73;76.80
1401;BME280;46518;48.842;8.926;2023-04-27T06:05:59;97255.75;;;9.80;76.28
1401;BME280;46518;48.842;8.926;2023-04-27T06:08:28;97264.19;;;9.82;75.84
1401;BME280;46518;48.842;8.926;2023-04-27T06:10:58;97260.47;;;9.95;75.46
1401;BME280;46518;48.842;8.926;2023-04-27T06:13:26;97268.06;;;10.08;74.93
1401;BME280;46518;48.842;8.926;2023-04-27T06:15:54;97265.09;;;10.05;73.97
1401;BME280;46518;48.842;8.926;2023-04-27T06:18:22;97272.38;;;10.14;71.72
1401;BME280;46518;48.842;8.926;2023-04-27T06:20:50;97265.63;;;10.35;71.61
1401;BME280;46518;48.842;8.926;2023-04-27T06:23:18;97273.50;;;10.52;71.13
1401;BME280;46518;48.842;8.926;2023-04-27T06:25:47;97263.06;;;10.57;70.67
1401;BME280;46518;48.842;8.926;2023-04-27T06:28:16;97270.94;;;10.57;69.89
1401;BME280;46518;48.842;8.926;2023-04-27T06:30:44;97271.88;;;10.68;68.83
1401;BME280;46518;48.842;8.926;2023-04-27T06:33:13;97272.22;;;10.72;67.35
1401;BME280;46518;48.842;8.926;2023-04-27T06:35:41;97269.69;;;10.60;66.90
1401;BME280;46518;48.842;8.926;2023-04-27T06:38:12;97277.28;;;10.40;66.77
1401;BME280;46518;48.842;8.926;2023-04-27T06:40:41;97280.63;;;10.52;67.11
1401;BME280;46518;48.842;8.926;2023-04-27T06:43:09;97280.84;;;10.67;66.73
1401;BME280;46518;48.842;8.926;2023-04-27T06:45:38;97277.50;;;10.55;68.42
1401;BME280;46518;48.842;8.926;2023-04-27T06:48:07;97281.81;;;10.61;70.36
1401;BME280;46518;48.842;8.926;2023-04-27T06:50:35;97276.75;;;10.76;70.24
1401;BME280;46518;48.842;8.926;2023-04-27T06:53:03;97277.47;;;10.72;70.59
1401;BME280;46518;48.842;8.926;2023-04-27T06:55:31;97286.09;;;10.67;70.56
1401;BME280;46518;48.842;8.926;2023-04-27T06:57:59;97292.56;;;10.60;71.48
1401;BME280;46518;48.842;8.926;2023-04-27T07:00:28;97289.16;;;10.42;68.92
1401;BME280;46518;48.842;8.926;2023-04-27T07:02:57;97290.91;;;10.36;70.10
1401;BME280;46518;48.842;8.926;2023-04-27T07:05:26;97284.91;;;10.58;69.32
1401;BME280;46518;48.842;8.926;2023-04-27T07:07:54;97281.03;;;10.83;68.63
1401;BME280;46518;48.842;8.926;2023-04-27T07:10:23;97278.81;;;10.91;67.50
1401;BME280;46518;48.842;8.926;2023-04-27T07:12:51;97288.19;;;11.04;66.48
1401;BME280;46518;48.842;8.926;2023-04-27T07:15:20;97281.59;;;11.23;63.75
1401;BME280;46518;48.842;8.926;2023-04-27T07:17:50;97283.81;;;10.93;63.68
1401;BME280;46518;48.842;8.926;2023-04-27T07:20:21;97282.00;;;11.15;63.50
1401;BME280;46518;48.842;8.926;2023-04-27T07:22:49;97283.84;;;11.37;61.29
1401;BME280;46518;48.842;8.926;2023-04-27T07:25:18;97288.78;;;11.55;60.67
1401;BME280;46518;48.842;8.926;2023-04-27T07:27:46;97280.00;;;11.44;58.33
1401;BME280;46518;48.842;8.926;2023-04-27T07:30:15;97284.81;;;11.53;57.76
1401;BME280;46518;48.842;8.926;2023-04-27T07:32:43;97273.63;;;11.68;58.26
1401;BME280;46518;48.842;8.926;2023-04-27T07:35:12;97274.94;;;11.65;55.54
1401;BME280;46518;48.842;8.926;2023-04-27T07:37:42;97278.97;;;11.73;55.96
1401;BME280;46518;48.842;8.926;2023-04-27T07:40:12;97282.41;;;11.73;56.23
1401;BME280;46518;48.842;8.926;2023-04-27T07:42:42;97273.88;;;11.88;55.58
1401;BME280;46518;48.842;8.926;2023-04-27T07:45:12;97268.91;;;11.92;54.89
1401;BME280;46518;48.842;8.926;2023-04-27T07:47:41;97276.25;;;12.17;56.11
1401;BME280;46518;48.842;8.926;2023-04-27T07:50:10;97272.97;;;12.37;53.76
1401;BME280;46518;48.842;8.926;2023-04-27T07:52:38;97271.44;;;12.08;53.18
1401;BME280;46518;48.842;8.926;2023-04-27T07:55:08;97266.22;;;11.86;51.79
1401;BME280;46518;48.842;8.926;2023-04-27T07:57:37;97274.78;;;11.99;52.54
1401;BME280;46518;48.842;8.926;2023-04-27T08:00:06;97278.84;;;12.44;53.63
1401;BME280;46518;48.842;8.926;2023-04-27T08:02:40;97278.66;;;12.56;52.77
1401;BME280;46518;48.842;8.926;2023-04-27T08:05:09;97276.44;;;12.42;51.40
1401;BME280;46518;48.842;8.926;2023-04-27T08:07:38;97274.22;;;12.61;48.68
1401;BME280;46518;48.842;8.926;2023-04-27T08:10:14;97264.44;;;12.62;47.21
1401;BME280;46518;48.842;8.926;2023-04-27T08:12:42;97265.22;;;12.62;48.37
1401;BME280;46518;48.842;8.926;2023-04-27T08:15:11;97264.31;;;12.84;48.92
1401;BME280;46518;48.842;8.926;2023-04-27T08:17:40;97269.69;;;13.04;50.35
1401;BME280;46518;48.842;8.926;2023-04-27T08:20:10;97264.06;;;13.33;51.14
1401;BME280;46518;48.842;8.926;2023-04-27T08:22:38;97266.75;;;13.53;51.94
1401;BME280;46518;48.842;8.926;2023-04-27T08:25:07;97253.84;;;13.72;51.60
1401;BME280;46518;48.842;8.926;2023-04-27T08:27:38;97256.78;;;13.86;51.30
1401;BME280;46518;48.842;8.926;2023-04-27T08:30:07;97252.56;;;14.00;50.27
1401;BME280;46518;48.842;8.926;2023-04-27T08:32:35;97249.63;;;13.97;49.93
1401;BME280;46518;48.842;8.926;2023-04-27T08:35:04;97257.06;;;14.15;50.17
1401;BME280;46518;48.842;8.926;2023-04-27T08:37:32;97246.75;;;14.29;49.36
1401;BME280;46518;48.842;8.926;2023-04-27T08:40:03;97252.81;;;14.45;49.43
1401;BME280;46518;48.842;8.926;2023-04-27T08:42:32;97249.13;;;14.56;48.51
1401;BME280;46518;48.842;8.926;2023-04-27T08:45:02;97240.63;;;14.70;48.88
1401;BME280;46518;48.842;8.926;2023-04-27T08:47:30;97243.53;;;14.78;47.22
1401;BME280;46518;48.842;8.926;2023-04-27T08:50:10;97239.53;;;14.91;46.95
1401;BME280;46518;48.842;8.926;2023-04-27T08:52:39;97243.72;;;15.02;46.71
1401;BME280;46518;48.842;8.926;2023-04-27T08:55:07;97244.06;;;14.44;44.80
1401;BME280;46518;48.842;8.926;2023-04-27T08:57:35;97243.28;;;14.39;47.53
1401;BME280;46518;48.842;8.926;2023-04-27T09:00:06;97249.94;;;14.16;46.96
1401;BME280;46518;48.842;8.926;2023-04-27T09:02:45;97250.16;;;14.30;47.07
1401;BME280;46518;48.842;8.926;2023-04-27T09:05:15;97251.00;;;14.56;44.80
1401;BME280;46518;48.842;8.926;2023-04-27T09:07:57;97252.31;;;14.63;43.84
1401;BME280;46518;48.842;8.926;2023-04-27T09:10:26;97252.31;;;14.43;44.63
1401;BME280;46518;48.842;8.926;2023-04-27T09:12:57;97252.53;;;14.52;44.46
1401;BME280;46518;48.842;8.926;2023-04-27T09:15:27;97257.06;;;14.41;42.91
1401;BME280;46518;48.842;8.926;2023-04-27T09:17:56;97266.03;;;14.45;49.49
1401;BME280;46518;48.842;8.926;2023-04-27T09:20:25;97259.44;;;14.53;45.50
1401;BME280;46518;48.842;8.926;2023-04-27T09:22:54;97256.53;;;14.64;44.67
1401;BME280;46518;48.842;8.926;2023-04-27T09:25:25;97261.03;;;14.59;42.96
1401;BME280;46518;48.842;8.926;2023-04-27T09:27:55;97254.66;;;14.44;47.34
1401;BME280;46518;48.842;8.926;2023-04-27T09:30:24;97255.69;;;14.84;45.49
1401;BME280;46518;48.842;8.926;2023-04-27T09:32:55;97254.59;;;15.01;45.73
1401;BME280;46518;48.842;8.926;2023-04-27T09:35:24;97263.34;;;14.96;44.48
1401;BME280;46518;48.842;8.926;2023-04-27T09:37:53;97258.59;;;14.98;44.06
1401;BME280;46518;48.842;8.926;2023-04-27T09:40:23;97265.16;;;15.16;44.08
1401;BME280;46518;48.842;8.926;2023-04-27T09:42:54;97256.16;;;15.02;44.33
1401;BME280;46518;48.842;8.926;2023-04-27T09:45:23;97256.81;;;15.43;45.40
1401;BME280;46518;48.842;8.926;2023-04-27T09:47:53;97246.63;;;15.71;45.56
1401;BME280;46518;48.842;8.926;2023-04-27T09:50:21;97251.09;;;15.76;45.82
1401;BME280;46518;48.842;8.926;2023-04-27T09:52:50;97251.78;;;15.91;44.61
1401;BME280;46518;48.842;8.926;2023-04-27T09:55:21;97245.81;;;15.70;43.24
1401;BME280;46518;48.842;8.926;2023-04-27T09:57:55;97245.41;;;15.43;42.26
1401;BME280;46518;48.842;8.926;2023-04-27T10:00:37;97247.06;;;15.28;42.92
1401;BME280;46518;48.842;8.926;2023-04-27T10:03:19;97248.53;;;15.50;43.35
1401;BME280;46518;48.842;8.926;2023-04-27T10:08:58;97251.25;;;15.89;45.07
1401;BME280;46518;48.842;8.926;2023-04-27T10:11:37;97251.13;;;16.10;44.38
1401;BME280;46518;48.842;8.926;2023-04-27T10:14:07;97252.84;;;16.25;44.74
1401;BME280;46518;48.842;8.926;2023-04-27T10:16:43;97248.38;;;15.86;44.56
1401;BME280;46518;48.842;8.926;2023-04-27T10:19:13;97249.22;;;15.21;44.02
1401;BME280;46518;48.842;8.926;2023-04-27T10:21:53;97243.69;;;15.13;47.54
1401;BME280;46518;48.842;8.926;2023-04-27T10:24:39;97248.84;;;15.43;46.12
1401;BME280;46518;48.842;8.926;2023-04-27T10:27:08;97252.53;;;15.47;44.10
1401;BME280;46518;48.842;8.926;2023-04-27T10:29:39;97245.66;;;15.46;46.33
1401;BME280;46518;48.842;8.926;2023-04-27T10:32:10;97253.66;;;15.36;43.39
1401;BME280;46518;48.842;8.926;2023-04-27T10:34:39;97249.78;;;15.13;42.58
1401;BME280;46518;48.842;8.926;2023-04-27T10:37:10;97243.72;;;15.02;42.14
1401;BME280;46518;48.842;8.926;2023-04-27T10:39:41;97238.91;;;15.09;44.38
1401;BME280;46518;48.842;8.926;2023-04-27T10:42:25;97238.94;;;15.04;43.88
1401;BME280;46518;48.842;8.926;2023-04-27T10:44:56;97235.44;;;15.14;43.79
1401;BME280;46518;48.842;8.926;2023-04-27T10:47:35;97232.41;;;15.46;44.55
1401;BME280;46518;48.842;8.926;2023-04-27T10:50:07;97239.19;;;15.68;44.76
1401;BME280;46518;48.842;8.926;2023-04-27T10:52:39;97241.72;;;15.88;43.45
1401;BME280;46518;48.842;8.926;2023-04-27T10:55:15;97228.78;;;16.16;42.41
1401;BME280;46518;48.842;8.926;2023-04-27T10:57:47;97233.91;;;16.36;44.88
1401;BME280;46518;48.842;8.926;2023-04-27T11:00:21;97237.34;;;16.66;45.13
1401;BME280;46518;48.842;8.926;2023-04-27T11:02:51;97232.72;;;16.77;44.92
1401;BME280;46518;48.842;8.926;2023-04-27T11:05:23;97228.69;;;16.85;43.91
1401;BME280;46518;48.842;8.926;2023-04-27T11:08:04;97233.91;;;16.95;43.54
1401;BME280;46518;48.842;8.926;2023-04-27T11:10:32;97229.88;;;16.97;43.19
1401;BME280;46518;48.842;8.926;2023-04-27T11:13:06;97220.22;;;16.83;41.33
1401;BME280;46518;48.842;8.926;2023-04-27T11:15:45;97226.06;;;16.79;42.59
1401;BME280;46518;48.842;8.926;2023-04-27T11:18:15;97214.94;;;16.72;42.46
1401;BME280;46518;48.842;8.926;2023-04-27T11:20:47;97218.53;;;16.63;43.15
1401;BME280;46518;48.842;8.926;2023-04-27T11:23:23;97213.94;;;16.10;49.26
1401;BME280;46518;48.842;8.926;2023-04-27T11:25:52;97213.69;;;16.11;48.05
1401;BME280;46518;48.842;8.926;2023-04-27T11:28:21;97214.78;;;16.64;46.63
1401;BME280;46518;48.842;8.926;2023-04-27T11:30:56;97218.81;;;16.90;45.88
1401;BME280;46518;48.842;8.926;2023-04-27T11:33:25;97226.06;;;17.28;44.24
1401;BME280;46518;48.842;8.926;2023-04-27T11:35:55;97219.53;;;17.39;42.22
1401;BME280;46518;48.842;8.926;2023-04-27T11:38:24;97212.41;;;17.53;41.65
1401;BME280;46518;48.842;8.926;2023-04-27T11:41:02;97214.66;;;17.46;40.60
1401;BME280;46518;48.842;8.926;2023-04-27T11:43:31;97209.97;;;17.57;43.24
1401;BME280;46518;48.842;8.926;2023-04-27T11:46:01;97222.25;;;17.72;42.03
1401;BME280;46518;48.842;8.926;2023-04-27T11:48:30;97213.06;;;17.64;41.57
1401;BME280;46518;48.842;8.926;2023-04-27T11:51:00;97218.03;;;17.52;40.91
1401;BME280;46518;48.842;8.926;2023-04-27T11:53:29;97210.47;;;17.59;41.49
1401;BME280;46518;48.842;8.926;2023-04-27T11:55:59;97208.94;;;17.72;41.90
1401;BME280;46518;48.842;8.926;2023-04-27T11:58:28;97209.19;;;17.75;42.12
1401;BME280;46518;48.842;8.926;2023-04-27T12:00:56;97210.84;;;17.90;43.00
1401;BME280;46518;48.842;8.926;2023-04-27T12:03:26;97200.25;;;18.04;42.86
1401;BME280;46518;48.842;8.926;2023-04-27T12:06:04;97208.78;;;18.20;42.04
1401;BME280;46518;48.842;8.926;2023-04-27T12:08:52;97198.50;;;18.13;41.53
1401;BME280;46518;48.842;8.926;2023-04-27T12:11:20;97200.13;;;17.95;40.52
1401;BME280;46518;48.842;8.926;2023-04-27T12:13:48;97197.66;;;17.99;40.86
1401;BME280;46518;48.842;8.926;2023-04-27T12:16:18;97202.63;;;17.86;41.46
1401;BME280;46518;48.842;8.926;2023-04-27T12:18:48;97197.94;;;17.78;40.21
1401;BME280;46518;48.842;8.926;2023-04-27T12:21:18;97194.00;;;17.76;40.53
1401;BME280;46518;48.842;8.926;2023-04-27T12:23:47;97194.44;;;17.64;40.80
1401;BME280;46518;48.842;8.926;2023-04-27T12:26:15;97199.53;;;17.79;42.29
1401;BME280;46518;48.842;8.926;2023-04-27T12:28:43;97190.97;;;18.01;41.02
1401;BME280;46518;48.842;8.926;2023-04-27T12:31:15;97195.34;;;18.11;40.59
1401;BME280;46518;48.842;8.926;2023-04-27T12:33:44;97182.19;;;18.01;41.95
1401;BME280;46518;48.842;8.926;2023-04-27T12:36:14;97179.06;;;18.13;40.60
1401;BME280;46518;48.842;8.926;2023-04-27T12:38:44;97192.41;;;18.26;38.78
1401;BME280;46518;48.842;8.926;2023-04-27T12:41:12;97187.88;;;17.56;39.29
1401;BME280;46518;48.842;8.926;2023-04-27T12:43:40;97184.25;;;18.04;41.04
1401;BME280;46518;48.842;8.926;2023-04-27T12:46:09;97184.91;;;18.28;41.99
1401;BME280;46518;48.842;8.926;2023-04-27T12:48:37;97179.34;;;18.11;39.27
1401;BME280;46518;48.842;8.926;2023-04-27T12:51:05;97188.22;;;18.06;41.41
1401;BME280;46518;48.842;8.926;2023-04-27T12:53:33;97182.09;;;18.06;38.43
1401;BME280;46518;48.842;8.926;2023-04-27T12:56:03;97179.69;;;17.72;38.79
1401;BME280;46518;48.842;8.926;2023-04-27T12:58:31;97175.25;;;17.48;38.81
1401;BME280;46518;48.842;8.926;2023-04-27T13:01:00;97181.66;;;17.04;39.97
1401;BME280;46518;48.842;8.926;2023-04-27T13:03:28;97178.28;;;16.98;39.55
1401;BME280;46518;48.842;8.926;2023-04-27T13:05:56;97171.41;;;17.16;39.46
1401;BME280;46518;48.842;8.926;2023-04-27T13:08:25;97177.38;;;17.46;40.35
1401;BME280;46518;48.842;8.926;2023-04-27T13:10:53;97174.66;;;17.51;39.67
1401;BME280;46518;48.842;8.926;2023-04-27T13:13:23;97177.66;;;17.44;38.80
1401;BME280;46518;48.842;8.926;2023-04-27T13:15:51;97176.88;;;17.44;40.47
1401;BME280;46518;48.842;8.926;2023-04-27T13:18:19;97170.13;;;17.71;41.25
1401;BME280;46518;48.842;8.926;2023-04-27T13:20:50;97162.56;;;17.59;39.54
1401;BME280;46518;48.842;8.926;2023-04-27T13:23:18;97170.47;;;17.64;39.03
1401;BME280;46518;48.842;8.926;2023-04-27T13:25:46;97170.44;;;17.50;39.18
1401;BME280;46518;48.842;8.926;2023-04-27T13:28:15;97170.97;;;17.09;44.12
1401;BME280;46518;48.842;8.926;2023-04-27T13:30:44;97176.66;;;17.02;40.71
1401;BME280;46518;48.842;8.926;2023-04-27T13:33:14;97163.22;;;17.13;41.18
1401;BME280;46518;48.842;8.926;2023-04-27T13:35:49;97161.41;;;17.08;45.24
1401;BME280;46518;48.842;8.926;2023-04-27T13:38:17;97150.94;;;17.36;45.15
1401;BME280;46518;48.842;8.926;2023-04-27T13:40:46;97151.34;;;17.62;46.60
1401;BME280;46518;48.842;8.926;2023-04-27T13:43:14;97149.53;;;17.95;42.31
1401;BME280;46518;48.842;8.926;2023-04-27T13:45:42;97148.19;;;18.11;41.94
1401;BME280;46518;48.842;8.926;2023-04-27T13:48:12;97143.63;;;18.12;41.82
1401;BME280;46518;48.842;8.926;2023-04-27T13:50:40;97153.63;;;18.34;42.38
1401;BME280;46518;48.842;8.926;2023-04-27T13:53:10;97145.66;;;18.34;42.56
1401;BME280;46518;48.842;8.926;2023-04-27T13:55:39;97151.50;;;18.64;41.66
1401;BME280;46518;48.842;8.926;2023-04-27T13:58:07;97151.03;;;18.75;41.29
1401;BME280;46518;48.842;8.926;2023-04-27T14:00:36;97145.47;;;18.72;41.96
1401;BME280;46518;48.842;8.926;2023-04-27T14:03:04;97144.22;;;18.83;42.88
1401;BME280;46518;48.842;8.926;2023-04-27T14:05:36;97146.06;;;18.96;42.28
1401;BME280;46518;48.842;8.926;2023-04-27T14:08:04;97143.81;;;18.62;41.67
1401;BME280;46518;48.842;8.926;2023-04-27T14:10:34;97143.91;;;18.57;40.76
1401;BME280;46518;48.842;8.926;2023-04-27T14:13:03;97137.78;;;18.98;42.02
1401;BME280;46518;48.842;8.926;2023-04-27T14:15:32;97143.09;;;19.48;41.65
1401;BME280;46518;48.842;8.926;2023-04-27T14:18:03;97140.19;;;19.58;38.94
1401;BME280;46518;48.842;8.926;2023-04-27T14:20:33;97139.81;;;19.51;36.80
1401;BME280;46518;48.842;8.926;2023-04-27T14:23:04;97149.97;;;19.27;37.28
1401;BME280;46518;48.842;8.926;2023-04-27T14:25:32;97150.41;;;18.51;40.56
1401;BME280;46518;48.842;8.926;2023-04-27T14:28:02;97147.28;;;18.77;39.37
1401;BME280;46518;48.842;8.926;2023-04-27T14:30:31;97141.72;;;18.87;38.79